Terminal Aerodrome Forecast
Issued by NWS

Home | Current Version | Previous Version | Text Only | Print | Product List | Glossary On
Versions: 1 2 3 4 5 6 7 8 9 10 11 12 13 14 15 16 17 18 19 20 21 22 23 24 25 26 27 28 29
000
FTUS43 KPAH 201733
TAFCGI
TAF
KCGI 201733Z 2018/2118 17008KT P6SM VCSH SCT020 BKN100
      TEMPO 2018/2021 27012G30KT 4SM -TSRA BR BKN020CB
     FM202100 VRB04KT P6SM VCTS FEW030CB SCT100
      TEMPO 2021/2023 BKN030CB
     FM202300 VRB03KT P6SM VCTS SCT025CB BKN100 PROB30 2103/2106 4SM
      SHRA BKN020
     FM210600 VRB01KT P6SM SCT015 BKN100 PROB30 2106/2110 4SM -TSRA
      BKN015CB
     FM211000 00000KT P6SM SCT008 OVC090 PROB30 2110/2116 4SM -TSRA
      OVC008CB=

USA.gov is the U.S. government's official web portal to all federal, state and local government web resources and services.